Time;durP1;ratioP1;P1;durP2;ratioP2;P2;SDS_P1;SDS_P2;PMS_P1;PMS_P2;Temp;Humidity;BMP_temperature;BMP_pressure;BME280_temperature;BME280_humidity;BME280_pressure;Samples;Min_cycle;Max_cycle;Signal;HPM_P1;HPM_P2
2022/12/05 00:00:29;;;;;;;14.60;11.98;;;6.80;61.40;;;;;;4999422;28;20089;-74
2022/12/05 00:03:13;;;;;;;14.05;11.65;;;6.80;61.40;;;;;;4989753;28;20563;-75
2022/12/05 00:05:58;;;;;;;15.68;11.35;;;6.80;61.40;;;;;;4988429;28;20121;-74
2022/12/05 00:08:43;;;;;;;16.13;12.75;;;6.90;61.60;;;;;;5002126;28;20452;-73
2022/12/05 00:11:34;;;;;;;13.52;11.80;;;6.80;61.40;;;;;;5005495;28;20044;-74
2022/12/05 00:14:18;;;;;;;15.93;13.70;;;6.80;61.40;;;;;;4989340;28;20049;-74
2022/12/05 00:17:03;;;;;;;16.05;12.43;;;6.80;61.40;;;;;;4988574;28;20058;-74
2022/12/05 00:19:47;;;;;;;14.25;12.45;;;6.80;61.40;;;;;;5003970;28;20120;-74
2022/12/05 00:22:36;;;;;;;17.08;13.10;;;6.80;61.40;;;;;;5007184;28;20041;-76
2022/12/05 00:25:21;;;;;;;19.00;12.75;;;6.80;61.40;;;;;;4988552;28;20061;-74
2022/12/05 00:28:06;;;;;;;14.05;12.00;;;6.90;61.70;;;;;;4988210;28;20093;-74
2022/12/05 00:30:50;;;;;;;15.35;12.73;;;6.80;61.50;;;;;;5009532;28;20397;-75
2022/12/05 00:33:35;;;;;;;14.35;11.65;;;6.80;61.50;;;;;;5008375;28;20096;-75
2022/12/05 00:36:26;;;;;;;16.45;12.38;;;6.80;61.50;;;;;;4998422;28;20145;-74
2022/12/05 00:39:14;;;;;;;14.82;12.65;;;6.80;61.60;;;;;;4998499;28;20515;-74
2022/12/05 00:41:58;;;;;;;15.30;13.35;;;6.80;61.60;;;;;;4993034;28;20064;-75
2022/12/05 00:44:43;;;;;;;13.80;12.00;;;6.80;61.60;;;;;;5007540;28;20049;-74
2022/12/05 00:47:27;;;;;;;15.05;12.77;;;6.80;61.60;;;;;;4991421;28;20045;-75
2022/12/05 00:50:12;;;;;;;15.73;12.85;;;6.80;61.70;;;;;;4994064;28;20061;-75
2022/12/05 00:52:57;;;;;;;17.13;12.80;;;6.80;61.70;;;;;;4988388;28;20076;-75
2022/12/05 00:55:41;;;;;;;14.88;13.32;;;6.80;61.70;;;;;;4988774;28;20052;-76
2022/12/05 00:58:26;;;;;;;15.77;13.27;;;6.80;61.70;;;;;;5004909;28;20044;-75
2022/12/05 01:01:16;;;;;;;17.63;12.27;;;6.80;61.80;;;;;;5007130;28;20503;-74
2022/12/05 01:04:08;;;;;;;14.18;12.63;;;6.80;61.80;;;;;;4990137;28;20065;-74
2022/12/05 01:06:56;;;;;;;14.55;12.93;;;6.80;61.80;;;;;;4986352;28;20121;-73
2022/12/05 01:09:41;;;;;;;16.00;12.18;;;6.80;61.80;;;;;;5001692;28;20079;-72
2022/12/05 01:12:27;;;;;;;15.85;11.98;;;6.80;61.90;;;;;;5007587;28;20037;-73
2022/12/05 01:15:11;;;;;;;16.17;12.75;;;6.80;61.90;;;;;;5007227;28;20108;-72
2022/12/05 01:17:56;;;;;;;13.70;11.40;;;6.70;61.80;;;;;;4990802;28;20504;-73
2022/12/05 01:20:41;;;;;;;15.85;12.73;;;6.80;61.90;;;;;;4995699;28;20120;-73
2022/12/05 01:23:26;;;;;;;14.98;11.65;;;6.70;61.80;;;;;;5007161;28;20349;-73
2022/12/05 01:26:12;;;;;;;13.57;12.05;;;6.70;61.90;;;;;;5010743;28;20072;-78
2022/12/05 01:28:57;;;;;;;14.70;12.60;;;6.70;61.90;;;;;;5012518;28;20119;-75
2022/12/05 01:31:42;;;;;;;15.32;12.35;;;6.70;61.90;;;;;;5023727;28;20049;-74
2022/12/05 01:34:27;;;;;;;19.13;14.00;;;6.70;62.00;;;;;;5015814;28;20134;-73
2022/12/05 01:37:11;;;;;;;15.65;11.88;;;6.70;62.00;;;;;;5010601;28;20180;-72
2022/12/05 01:39:56;;;;;;;14.50;12.35;;;6.70;62.10;;;;;;5008170;28;20450;-73
2022/12/05 01:42:41;;;;;;;14.63;11.60;;;6.70;62.10;;;;;;4988064;28;20092;-72
2022/12/05 01:45:40;;;;;;;15.82;12.98;;;6.70;62.20;;;;;;4987709;28;20065;-75
2022/12/05 01:48:34;;;;;;;15.15;12.98;;;6.70;62.20;;;;;;4986436;28;20041;-73
2022/12/05 01:51:19;;;;;;;16.75;13.05;;;6.70;62.20;;;;;;5000498;28;20040;-73
2022/12/05 01:54:05;;;;;;;15.45;13.45;;;6.70;62.30;;;;;;5005524;28;20040;-72
2022/12/05 01:56:58;;;;;;;15.63;12.20;;;6.70;62.30;;;;;;5006448;28;20099;-74
2022/12/05 01:59:52;;;;;;;16.73;13.80;;;6.70;62.30;;;;;;5005110;28;20041;-73
2022/12/05 02:02:37;;;;;;;18.02;11.80;;;6.70;62.40;;;;;;5004459;28;20645;-72
2022/12/05 02:05:30;;;;;;;15.63;12.60;;;6.80;62.60;;;;;;4989145;28;20142;-75
2022/12/05 02:08:14;;;;;;;15.30;12.30;;;6.80;62.60;;;;;;4990333;28;20060;-72
2022/12/05 02:10:59;;;;;;;14.75;12.13;;;6.80;62.60;;;;;;5012028;28;20120;-70
2022/12/05 02:14:05;;;;;;;16.30;11.68;;;6.70;62.40;;;;;;4986574;28;20044;-71
2022/12/05 02:16:53;;;;;;;17.25;12.45;;;6.80;62.70;;;;;;4992088;28;20057;-71
2022/12/05 02:20:10;;;;;;;13.10;11.43;;;6.80;62.70;;;;;;4996887;28;20083;-70
2022/12/05 02:23:04;;;;;;;16.23;12.27;;;6.80;62.70;;;;;;5006396;28;20088;-75
2022/12/05 02:26:13;;;;;;;14.35;11.35;;;6.80;62.70;;;;;;4999387;28;20543;-75
2022/12/05 02:29:22;;;;;;;14.02;11.90;;;6.80;62.70;;;;;;4986763;28;20053;-74
2022/12/05 02:32:37;;;;;;;12.98;10.70;;;6.80;62.80;;;;;;4985397;28;20076;-74
2022/12/05 02:35:40;;;;;;;13.85;11.20;;;6.80;62.80;;;;;;4987064;28;20257;-74
2022/12/05 02:38:31;;;;;;;14.88;12.10;;;6.80;62.80;;;;;;4987451;28;20265;-72
2022/12/05 02:41:25;;;;;;;14.00;11.18;;;6.70;62.60;;;;;;5013410;28;20119;-74
2022/12/05 02:44:17;;;;;;;13.85;11.55;;;6.80;62.90;;;;;;5026068;28;20072;-74
2022/12/05 02:47:04;;;;;;;13.85;11.10;;;6.80;62.90;;;;;;5028413;23;20167;-76
2022/12/05 02:49:50;;;;;;;12.93;10.90;;;6.70;62.80;;;;;;5028751;28;20503;-76
2022/12/05 02:52:35;;;;;;;13.30;10.88;;;6.80;63.00;;;;;;5027108;28;20519;-76
2022/12/05 02:55:22;;;;;;;14.52;11.00;;;6.70;62.80;;;;;;5027217;28;20410;-77
2022/12/05 02:58:13;;;;;;;14.07;11.55;;;6.70;62.90;;;;;;5008119;28;20049;-77
2022/12/05 03:00:58;;;;;;;12.52;11.18;;;6.70;63.00;;;;;;5008269;28;20045;-77
2022/12/05 03:03:43;;;;;;;14.20;11.73;;;6.70;63.00;;;;;;5008699;28;20044;-77
2022/12/05 03:06:35;;;;;;;12.55;11.25;;;6.70;63.00;;;;;;5007873;28;20091;-77
2022/12/05 03:09:41;;;;;;;13.77;11.43;;;6.70;63.10;;;;;;5013746;28;20165;-77
2022/12/05 03:12:29;;;;;;;14.13;12.07;;;6.70;63.10;;;;;;5008475;28;20040;-78
2022/12/05 03:15:18;;;;;;;16.00;11.73;;;6.70;63.10;;;;;;5008679;28;20049;-77
2022/12/05 03:18:17;;;;;;;14.10;12.32;;;6.70;63.20;;;;;;5008951;28;20071;-77
2022/12/05 03:21:17;;;;;;;14.07;12.23;;;6.70;63.20;;;;;;5006265;28;20440;-77
2022/12/05 03:24:06;;;;;;;14.85;12.23;;;6.70;63.20;;;;;;5008225;28;20197;-77
2022/12/05 03:27:15;;;;;;;13.50;11.68;;;6.70;63.20;;;;;;5008514;28;20239;-77
2022/12/05 03:30:08;;;;;;;14.98;11.82;;;6.70;63.20;;;;;;5008172;28;20092;-75
2022/12/05 03:33:18;;;;;;;14.02;12.05;;;6.70;63.20;;;;;;4992887;28;20434;-75
2022/12/05 03:36:17;;;;;;;15.48;13.32;;;6.80;63.50;;;;;;5010866;28;20076;-75
2022/12/05 03:39:11;;;;;;;14.52;11.85;;;6.70;63.30;;;;;;5015177;28;20512;-75
2022/12/05 03:42:04;;;;;;;14.65;11.70;;;6.70;63.30;;;;;;5011498;28;20188;-75
2022/12/05 03:45:05;;;;;;;17.95;12.75;;;6.70;63.30;;;;;;5015070;28;20515;-76
2022/12/05 03:48:09;;;;;;;15.57;12.95;;;6.70;63.40;;;;;;5011414;28;20103;-77
2022/12/05 03:50:57;;;;;;;16.35;12.00;;;6.70;63.40;;;;;;5010383;28;20044;-77
2022/12/05 03:53:55;;;;;;;15.68;13.23;;;6.70;63.40;;;;;;5011545;28;20099;-76
2022/12/05 03:56:47;;;;;;;19.05;12.68;;;6.70;63.50;;;;;;5011586;28;20060;-77
2022/12/05 03:59:41;;;;;;;16.10;13.30;;;6.80;63.70;;;;;;4996610;28;20092;-76
2022/12/05 04:02:44;;;;;;;15.02;12.68;;;6.70;63.50;;;;;;5010414;28;20351;-77
2022/12/05 04:05:38;;;;;;;16.38;12.35;;;6.70;63.60;;;;;;4996630;28;20202;-77
2022/12/05 04:08:28;;;;;;;18.63;14.00;;;6.80;63.70;;;;;;5022463;28;20084;-77
2022/12/05 04:11:19;;;;;;;15.73;14.20;;;6.70;63.60;;;;;;5030947;28;20091;-77
2022/12/05 04:14:14;;;;;;;15.45;13.18;;;6.70;63.60;;;;;;5011513;28;20175;-77
2022/12/05 04:17:07;;;;;;;17.58;13.75;;;6.70;63.60;;;;;;5010876;28;20141;-77
2022/12/05 04:23:11;;;;;;;16.10;13.35;;;6.80;63.80;;;;;;5011053;28;20019;-77
2022/12/05 04:26:23;;;;;;;18.88;13.65;;;6.70;63.60;;;;;;5010860;28;20165;-76
2022/12/05 04:29:17;;;;;;;17.63;13.93;;;6.70;63.60;;;;;;5021067;28;20101;-76
2022/12/05 04:32:07;;;;;;;17.88;13.60;;;6.70;63.70;;;;;;5019283;28;20105;-77
2022/12/05 04:34:57;;;;;;;17.92;14.10;;;6.70;63.70;;;;;;5010231;28;20057;-77
2022/12/05 04:37:46;;;;;;;17.73;14.43;;;6.70;63.80;;;;;;5010026;28;20579;-77
2022/12/05 04:40:47;;;;;;;17.10;14.82;;;6.70;63.80;;;;;;5010573;28;20087;-77
2022/12/05 04:43:38;;;;;;;18.40;13.82;;;6.70;63.80;;;;;;5010702;28;20567;-76
2022/12/05 04:46:23;;;;;;;16.02;13.85;;;6.70;63.80;;;;;;5008610;28;20123;-76
2022/12/05 04:49:15;;;;;;;16.98;13.70;;;6.70;63.90;;;;;;4995815;28;20049;-77
2022/12/05 04:52:03;;;;;;;16.92;14.38;;;6.70;63.90;;;;;;5009951;28;20527;-77
2022/12/05 04:55:19;;;;;;;18.40;13.63;;;6.80;64.10;;;;;;5010839;28;20165;-76
2022/12/05 04:58:17;;;;;;;17.67;14.02;;;6.80;64.20;;;;;;5010224;28;20093;-76
2022/12/05 05:01:16;;;;;;;18.15;13.13;;;6.80;64.20;;;;;;5009885;28;20044;-76
2022/12/05 05:04:35;;;;;;;17.60;12.93;;;6.70;64.00;;;;;;5006783;28;20044;-77
2022/12/05 05:07:20;;;;;;;15.43;13.68;;;6.80;64.20;;;;;;5009313;28;20041;-77
2022/12/05 05:10:05;;;;;;;16.95;13.57;;;6.80;64.20;;;;;;5026655;28;20432;-77
2022/12/05 05:12:49;;;;;;;17.42;14.60;;;6.80;64.20;;;;;;5029569;28;20600;-77
2022/12/05 05:15:33;;;;;;;18.17;13.75;;;6.80;64.20;;;;;;5014525;28;20048;-76
2022/12/05 05:18:18;;;;;;;18.52;14.38;;;6.80;64.30;;;;;;5007054;28;20096;-77
2022/12/05 05:21:03;;;;;;;16.38;13.77;;;6.80;64.30;;;;;;5025164;28;20040;-76
2022/12/05 05:23:47;;;;;;;16.98;13.45;;;6.80;64.40;;;;;;5029151;28;20099;-76
2022/12/05 05:26:38;;;;;;;16.15;13.77;;;6.80;64.40;;;;;;4990288;28;20033;-77
2022/12/05 05:29:22;;;;;;;22.60;14.60;;;6.80;64.40;;;;;;5016178;28;20429;-77
2022/12/05 05:32:06;;;;;;;17.52;15.10;;;6.80;64.40;;;;;;5029140;28;20484;-77
2022/12/05 05:34:51;;;;;;;18.52;14.02;;;6.80;64.40;;;;;;5027973;28;20068;-77
2022/12/05 05:37:35;;;;;;;19.60;15.02;;;6.80;64.40;;;;;;5017299;28;20138;-77
2022/12/05 05:40:20;;;;;;;18.33;13.65;;;6.80;64.50;;;;;;5029598;28;20122;-76
2022/12/05 05:43:04;;;;;;;15.88;13.05;;;6.80;64.50;;;;;;5009401;28;20122;-76
2022/12/05 05:45:49;;;;;;;17.30;13.65;;;6.80;64.50;;;;;;5008789;28;20129;-76
2022/12/05 05:48:34;;;;;;;18.83;13.27;;;6.80;64.60;;;;;;4991849;28;20505;-77
2022/12/05 05:51:20;;;;;;;16.77;13.52;;;6.80;64.60;;;;;;4990396;28;20045;-78
2022/12/05 05:54:04;;;;;;;18.15;14.70;;;6.80;64.60;;;;;;5005152;28;20081;-77
2022/12/05 05:56:49;;;;;;;18.77;13.30;;;6.80;64.60;;;;;;5006269;28;20502;-78
2022/12/05 05:59:33;;;;;;;16.65;14.05;;;6.90;64.80;;;;;;5022788;28;20420;-77
2022/12/05 06:02:18;;;;;;;17.50;14.38;;;6.90;64.80;;;;;;5011665;28;20033;-77
2022/12/05 06:05:03;;;;;;;22.17;15.30;;;6.80;64.60;;;;;;5005426;28;20045;-77
2022/12/05 06:07:48;;;;;;;17.70;14.93;;;6.90;64.80;;;;;;4996043;28;20083;-78
2022/12/05 06:10:33;;;;;;;16.48;14.35;;;6.90;64.80;;;;;;5025460;28;20099;-78
2022/12/05 06:13:17;;;;;;;17.77;14.85;;;6.90;64.80;;;;;;5025324;28;20056;-79
2022/12/05 06:16:05;;;;;;;17.60;13.77;;;6.90;64.90;;;;;;5004426;28;20056;-78
2022/12/05 06:18:50;;;;;;;17.13;14.45;;;6.90;64.90;;;;;;5025076;28;20060;-76
2022/12/05 06:21:34;;;;;;;16.15;13.98;;;6.90;64.90;;;;;;5003870;28;20044;-76
2022/12/05 06:24:19;;;;;;;18.50;14.07;;;6.90;64.90;;;;;;5016430;28;20107;-76
2022/12/05 06:27:04;;;;;;;18.48;15.00;;;6.90;64.90;;;;;;5025618;28;20176;-80
2022/12/05 06:29:49;;;;;;;16.50;13.60;;;6.90;64.90;;;;;;5025585;28;20040;-79
2022/12/05 06:32:33;;;;;;;16.00;13.75;;;6.90;64.90;;;;;;5023338;28;20434;-80
2022/12/05 06:35:18;;;;;;;18.83;14.82;;;6.90;65.00;;;;;;5023730;28;20036;-78
2022/12/05 06:38:04;;;;;;;19.42;14.30;;;6.90;65.00;;;;;;5018412;28;20100;-76
2022/12/05 06:40:49;;;;;;;25.15;16.45;;;6.90;65.00;;;;;;5025145;28;20092;-77
2022/12/05 06:43:34;;;;;;;16.38;14.30;;;6.90;65.00;;;;;;5024520;28;20431;-80
2022/12/05 06:46:18;;;;;;;18.67;14.98;;;6.90;65.00;;;;;;5018053;28;20153;-75
2022/12/05 06:49:03;;;;;;;19.33;15.32;;;6.90;65.10;;;;;;5013267;28;20561;-80
2022/12/05 06:51:47;;;;;;;17.20;15.05;;;6.90;65.20;;;;;;5024259;28;20041;-78
2022/12/05 06:54:32;;;;;;;18.60;13.95;;;7.00;65.50;;;;;;5006398;28;20385;-80
2022/12/05 06:57:16;;;;;;;18.35;14.65;;;7.10;65.80;;;;;;4990266;28;20064;-79
2022/12/05 07:03:04;;;;;;;16.83;14.20;;;7.10;65.80;;;;;;5004829;28;20111;-78
2022/12/05 07:05:48;;;;;;;22.13;13.75;;;7.10;65.80;;;;;;5017796;28;20192;-76
2022/12/05 07:08:33;;;;;;;20.27;15.05;;;7.10;65.80;;;;;;5021636;28;20200;-75
2022/12/05 07:11:18;;;;;;;17.48;14.15;;;7.10;65.80;;;;;;5004501;28;20881;-75
2022/12/05 07:14:04;;;;;;;17.40;14.57;;;7.10;65.90;;;;;;4990059;28;20180;-74
2022/12/05 07:16:48;;;;;;;17.33;14.07;;;7.00;65.70;;;;;;5003889;28;20127;-80
2022/12/05 07:19:33;;;;;;;18.17;13.82;;;7.10;65.90;;;;;;5021422;28;20208;-80
2022/12/05 07:22:19;;;;;;;17.40;15.52;;;7.00;65.80;;;;;;5004620;28;20374;-83
2022/12/05 07:25:04;;;;;;;17.77;14.70;;;7.00;65.80;;;;;;4998889;28;20175;-78
2022/12/05 07:27:48;;;;;;;18.58;15.45;;;7.00;65.80;;;;;;5020821;28;20052;-76
2022/12/05 07:30:33;;;;;;;15.63;14.00;;;7.00;65.80;;;;;;5012092;28;20084;-78
2022/12/05 07:33:18;;;;;;;17.00;15.20;;;7.00;65.80;;;;;;5020924;28;20108;-79
2022/12/05 07:36:05;;;;;;;20.73;14.40;;;7.00;65.80;;;;;;5011439;28;20057;-78
2022/12/05 07:38:55;;;;;;;17.40;15.20;;;7.00;65.90;;;;;;5011980;28;20091;-77
2022/12/05 07:41:41;;;;;;;17.35;13.75;;;7.00;65.80;;;;;;5003946;28;20041;-76
2022/12/05 07:44:26;;;;;;;17.63;14.68;;;7.10;66.00;;;;;;4989196;28;20136;-77
2022/12/05 07:47:10;;;;;;;21.33;14.77;;;7.00;65.80;;;;;;4992278;28;20159;-76
2022/12/05 07:49:55;;;;;;;16.85;14.40;;;7.10;65.90;;;;;;5022628;28;20090;-75
2022/12/05 07:52:40;;;;;;;18.55;15.65;;;7.10;65.90;;;;;;5013383;28;20069;-76
2022/12/05 07:55:24;;;;;;;20.23;16.08;;;7.00;65.80;;;;;;5003639;28;20040;-76
2022/12/05 07:58:09;;;;;;;16.52;14.55;;;7.10;65.90;;;;;;5007619;28;20076;-75
2022/12/05 08:00:53;;;;;;;17.65;14.93;;;7.10;65.90;;;;;;5020739;28;20578;-75
2022/12/05 08:03:38;;;;;;;18.15;14.63;;;7.00;65.80;;;;;;5020551;28;20404;-74
2022/12/05 08:06:27;;;;;;;20.15;16.40;;;7.10;66.00;;;;;;4993752;28;20117;-78
2022/12/05 08:09:11;;;;;;;18.13;15.98;;;7.10;65.90;;;;;;5010845;28;20092;-78
2022/12/05 08:11:56;;;;;;;18.10;15.48;;;7.10;65.90;;;;;;5003851;28;20606;-78
2022/12/05 08:14:40;;;;;;;20.13;14.82;;;7.10;65.90;;;;;;5003692;28;20057;-77
2022/12/05 08:17:29;;;;;;;20.50;16.60;;;7.10;65.90;;;;;;5009412;28;20056;-79
2022/12/05 08:20:13;;;;;;;17.65;15.25;;;7.10;65.90;;;;;;5003241;28;20052;-79
2022/12/05 08:22:57;;;;;;;17.95;15.35;;;7.10;65.90;;;;;;4992665;28;20048;-78
2022/12/05 08:25:42;;;;;;;15.98;13.80;;;7.10;65.90;;;;;;5011964;28;20037;-78
2022/12/05 08:28:27;;;;;;;21.05;15.82;;;7.10;65.90;;;;;;5014188;28;20056;-77
2022/12/05 08:31:15;;;;;;;16.65;14.88;;;7.10;65.90;;;;;;5019266;28;20076;-77
2022/12/05 08:34:00;;;;;;;17.88;14.77;;;7.10;65.80;;;;;;5026972;28;20055;-77
2022/12/05 08:36:44;;;;;;;16.70;14.25;;;7.20;66.00;;;;;;5024550;28;20126;-78
2022/12/05 08:39:29;;;;;;;21.25;16.17;;;7.20;66.00;;;;;;5021386;28;20037;-77
2022/12/05 08:42:13;;;;;;;18.38;14.80;;;7.20;65.90;;;;;;5017781;28;20052;-78
2022/12/05 08:44:58;;;;;;;18.27;15.80;;;7.20;65.90;;;;;;5025832;28;20048;-78
2022/12/05 08:47:43;;;;;;;19.35;16.17;;;7.20;65.80;;;;;;5005581;28;20052;-76
2022/12/05 08:50:27;;;;;;;17.02;14.18;;;7.30;66.00;;;;;;5028018;28;20040;-78
2022/12/05 08:53:12;;;;;;;23.83;16.90;;;7.30;66.00;;;;;;5027691;28;20179;-77
2022/12/05 08:56:03;;;;;;;17.02;15.13;;;7.30;65.90;;;;;;5004320;28;20437;-77
2022/12/05 08:58:47;;;;;;;19.77;14.75;;;7.30;65.80;;;;;;5015516;28;20160;-77
2022/12/05 09:01:35;;;;;;;20.05;15.07;;;7.30;65.80;;;;;;5026294;28;20095;-77
2022/12/05 09:04:20;;;;;;;18.63;13.80;;;7.40;66.00;;;;;;5025871;28;20037;-77
2022/12/05 09:07:07;;;;;;;21.60;16.02;;;7.40;65.90;;;;;;5024105;28;20060;-77
2022/12/05 09:09:51;;;;;;;19.40;15.10;;;7.40;65.80;;;;;;5021861;28;20051;-75
2022/12/05 09:12:36;;;;;;;20.45;15.80;;;7.40;65.80;;;;;;5010059;28;20385;-75
2022/12/05 09:15:20;;;;;;;18.17;14.73;;;7.50;66.00;;;;;;5004398;28;20037;-75
2022/12/05 09:18:05;;;;;;;16.58;14.63;;;7.50;65.90;;;;;;5007775;28;20125;-75
2022/12/05 09:20:50;;;;;;;17.90;15.05;;;7.50;66.30;;;;;;5019708;28;20056;-75
2022/12/05 09:23:35;;;;;;;22.77;15.43;;;7.60;65.90;;;;;;5025773;28;20507;-75
2022/12/05 09:26:23;;;;;;;18.83;14.55;;;7.60;65.80;;;;;;5025100;28;20111;-75
2022/12/05 09:29:08;;;;;;;16.63;14.30;;;7.70;65.90;;;;;;5020854;28;20052;-74
2022/12/05 09:31:54;;;;;;;16.35;13.38;;;7.70;65.80;;;;;;5025273;28;20037;-74
2022/12/05 09:34:38;;;;;;;17.40;15.57;;;7.80;65.90;;;;;;5009412;28;20409;-77
2022/12/05 09:37:23;;;;;;;18.23;14.20;;;7.90;66.00;;;;;;5023554;28;20072;-78
2022/12/05 09:40:16;;;;;;;21.85;15.18;;;7.90;66.00;;;;;;5025315;28;20052;-78
2022/12/05 09:43:15;;;;;;;17.65;14.43;;;8.00;66.10;;;;;;5022913;28;20031;-76
2022/12/05 09:46:12;;;;;;;17.85;13.55;;;8.00;65.90;;;;;;5022753;28;20463;-78
2022/12/05 09:48:58;;;;;;;19.75;14.27;;;8.10;66.00;;;;;;5025082;28;20304;-75
2022/12/05 09:51:45;;;;;;;18.00;14.18;;;8.20;66.10;;;;;;5024127;28;20474;-77
2022/12/05 09:54:30;;;;;;;16.52;14.07;;;8.20;66.00;;;;;;5019866;28;20044;-77
2022/12/05 09:57:15;;;;;;;16.38;13.73;;;8.20;65.80;;;;;;5009835;28;20087;-77
2022/12/05 10:00:02;;;;;;;16.55;14.13;;;8.30;66.00;;;;;;5026263;28;20068;-76
2022/12/05 10:03:06;;;;;;;17.55;13.90;;;8.40;66.10;;;;;;5021763;28;20492;-76
2022/12/05 10:05:59;;;;;;;16.88;14.15;;;8.40;66.00;;;;;;5006091;28;20622;-76
2022/12/05 10:09:22;;;;;;;17.52;13.82;;;8.40;65.80;;;;;;5031145;28;20044;-75
2022/12/05 10:12:33;;;;;;;18.35;14.98;;;8.50;65.90;;;;;;5025400;28;20048;-75
2022/12/05 10:15:29;;;;;;;16.30;13.50;;;8.60;66.00;;;;;;5017823;28;20498;-76
2022/12/05 10:18:32;;;;;;;16.50;13.93;;;8.60;65.80;;;;;;5027370;28;20140;-77
2022/12/05 10:21:35;;;;;;;17.77;15.00;;;8.70;65.90;;;;;;5017183;28;20148;-77
2022/12/05 10:24:43;;;;;;;17.88;13.90;;;8.70;65.80;;;;;;5047493;28;20040;-79
2022/12/05 10:27:42;;;;;;;22.52;13.25;;;8.80;66.50;;;;;;5026003;28;20551;-77
2022/12/05 10:30:30;;;;;;;20.42;14.23;;;8.90;66.20;;;;;;4999509;28;20194;-80
2022/12/05 10:33:21;;;;;;;17.05;13.23;;;8.90;66.20;;;;;;5006424;28;20045;-80
2022/12/05 10:36:10;;;;;;;17.13;14.02;;;9.10;66.40;;;;;;4990396;28;20095;-79
2022/12/05 10:38:56;;;;;;;17.17;13.70;;;9.20;66.40;;;;;;4989993;28;20040;-74
2022/12/05 10:41:40;;;;;;;20.13;14.18;;;9.30;66.50;;;;;;5013369;28;20117;-73
2022/12/05 10:44:25;;;;;;;17.42;12.73;;;9.30;66.30;;;;;;5004491;28;20417;-74
2022/12/05 10:47:11;;;;;;;15.15;12.68;;;9.30;66.20;;;;;;5004023;28;20057;-77
2022/12/05 10:50:01;;;;;;;16.05;14.05;;;9.40;66.30;;;;;;5019281;28;20554;-76
2022/12/05 10:52:46;;;;;;;14.82;12.55;;;9.50;66.30;;;;;;4988594;28;20103;-75
2022/12/05 10:55:40;;;;;;;17.30;13.48;;;9.50;66.30;;;;;;5023915;28;20059;-76
2022/12/05 10:58:27;;;;;;;17.02;14.32;;;9.50;66.20;;;;;;4997637;28;20405;-76
2022/12/05 11:01:22;;;;;;;16.38;13.65;;;9.60;66.80;;;;;;5025294;28;20032;-75
2022/12/05 11:04:21;;;;;;;18.15;13.63;;;9.60;66.10;;;;;;5024242;28;20048;-76
2022/12/05 11:07:05;;;;;;;15.65;12.85;;;9.70;66.30;;;;;;5018574;28;20361;-75
2022/12/05 11:09:56;;;;;;;16.63;13.90;;;9.70;66.20;;;;;;5011296;28;20639;-74
2022/12/05 11:12:41;;;;;;;16.83;13.60;;;9.80;66.20;;;;;;5021033;28;20048;-76
2022/12/05 11:15:28;;;;;;;13.02;11.70;;;9.80;66.70;;;;;;5024291;28;20091;-77
2022/12/05 11:18:28;;;;;;;14.45;12.95;;;9.80;66.00;;;;;;5007542;28;20045;-75
2022/12/05 11:21:13;;;;;;;17.30;12.80;;;9.90;66.10;;;;;;5022016;28;20040;-74
2022/12/05 11:24:24;;;;;;;15.57;11.77;;;9.90;66.00;;;;;;5014019;28;20080;-74
2022/12/05 11:27:15;;;;;;;12.82;11.48;;;10.00;66.10;;;;;;5016003;28;20064;-75
2022/12/05 11:30:04;;;;;;;13.73;12.32;;;10.00;65.90;;;;;;5007080;28;20065;-75
2022/12/05 11:32:50;;;;;;;14.45;11.05;;;10.10;66.00;;;;;;5017864;28;20362;-76
2022/12/05 11:35:34;;;;;;;14.50;11.32;;;10.20;66.00;;;;;;5000162;28;20132;-76
2022/12/05 11:38:24;;;;;;;12.63;11.30;;;10.20;65.80;;;;;;5021049;28;20052;-77
2022/12/05 11:41:12;;;;;;;14.52;11.40;;;10.10;65.60;;;;;;5013292;28;20096;-77
2022/12/05 11:44:19;;;;;;;12.88;11.50;;;10.20;65.80;;;;;;5040229;28;20056;-74
2022/12/05 11:47:13;;;;;;;12.07;10.93;;;10.10;65.70;;;;;;5028743;28;20408;-75
2022/12/05 11:50:26;;;;;;;11.52;9.65;;;10.10;65.70;;;;;;5023938;28;20055;-74
2022/12/05 11:53:35;;;;;;;11.32;10.13;;;10.20;65.80;;;;;;5019230;28;20456;-75
2022/12/05 11:56:28;;;;;;;12.05;10.60;;;10.20;65.70;;;;;;5026281;28;20571;-76
2022/12/05 11:59:32;;;;;;;14.88;10.32;;;10.30;65.80;;;;;;5022965;28;20228;-76
2022/12/05 12:02:40;;;;;;;11.55;10.00;;;10.40;65.80;;;;;;5026415;28;20079;-76
2022/12/05 12:05:31;;;;;;;9.70;8.68;;;10.50;65.80;;;;;;5027928;28;20099;-75
2022/12/05 12:08:50;;;;;;;12.95;10.02;;;10.50;65.60;;;;;;4994471;28;20045;-76
2022/12/05 12:11:51;;;;;;;9.50;8.50;;;10.60;65.60;;;;;;5003590;28;20510;-77
2022/12/05 12:15:25;;;;;;;12.80;9.30;;;10.60;65.50;;;;;;5027331;28;20119;-76
2022/12/05 12:18:33;;;;;;;9.75;8.70;;;10.70;65.60;;;;;;4967941;28;20137;-76
2022/12/05 12:21:20;;;;;;;10.20;8.32;;;10.70;65.60;;;;;;5026090;28;20052;-76
2022/12/05 12:24:49;;;;;;;10.15;8.30;;;10.70;65.50;;;;;;5026942;28;20091;-76
2022/12/05 12:28:04;;;;;;;10.38;8.52;;;10.70;65.30;;;;;;5026635;28;20052;-77
2022/12/05 12:31:22;;;;;;;7.60;6.97;;;10.80;65.50;;;;;;5006624;28;20040;-77
2022/12/05 12:34:44;;;;;;;9.00;7.57;;;10.70;65.30;;;;;;4992664;28;20112;-78
2022/12/05 12:37:52;;;;;;;8.55;7.15;;;10.70;65.30;;;;;;4990908;28;20097;-78
2022/12/05 12:40:48;;;;;;;9.15;7.00;;;10.60;65.30;;;;;;5007410;28;20072;-79
2022/12/05 12:44:03;;;;;;;10.40;6.70;;;10.60;65.40;;;;;;5007736;28;20409;-76
2022/12/05 12:47:24;;;;;;;6.70;5.78;;;10.60;65.40;;;;;;5001036;28;20080;-77
2022/12/05 12:50:24;;;;;;;7.72;7.03;;;10.60;65.50;;;;;;5024573;28;20120;-78
2022/12/05 12:53:40;;;;;;;7.88;6.85;;;10.60;65.60;;;;;;5025943;28;20487;-77
2022/12/05 12:56:59;;;;;;;6.95;6.25;;;10.60;65.70;;;;;;5007836;28;20180;-74
2022/12/05 12:59:59;;;;;;;10.93;7.25;;;10.60;65.70;;;;;;5018936;28;20053;-77
2022/12/05 13:03:01;;;;;;;9.02;7.20;;;10.70;65.90;;;;;;5006236;28;20513;-77
2022/12/05 13:06:12;;;;;;;8.55;6.35;;;10.70;65.90;;;;;;4996595;28;20052;-79
2022/12/05 13:09:10;;;;;;;8.18;6.95;;;10.80;66.00;;;;;;5019963;28;20474;-79
2022/12/05 13:12:01;;;;;;;6.78;5.93;;;10.90;66.00;;;;;;5024436;28;20037;-78
2022/12/05 13:14:57;;;;;;;7.57;6.20;;;11.00;66.00;;;;;;5025951;28;20064;-75
2022/12/05 13:17:44;;;;;;;7.18;6.45;;;11.00;65.80;;;;;;5008974;28;20079;-74
2022/12/05 13:20:33;;;;;;;7.72;6.53;;;11.00;65.80;;;;;;5021081;28;20060;-76
2022/12/05 13:23:22;;;;;;;6.60;5.90;;;11.10;65.80;;;;;;4994972;28;20056;-75
2022/12/05 13:26:09;;;;;;;8.77;5.65;;;11.10;65.80;;;;;;5015196;28;20045;-75
2022/12/05 13:28:57;;;;;;;8.38;6.47;;;11.10;65.70;;;;;;5022240;28;20044;-75
2022/12/05 13:31:44;;;;;;;9.65;7.25;;;11.10;65.60;;;;;;5005957;28;20534;-75
2022/12/05 13:34:28;;;;;;;7.50;6.32;;;11.10;65.60;;;;;;5006236;28;20099;-80
2022/12/05 13:43:54;;;;;;;6.85;5.30;;;11.10;65.50;;;;;;5021608;28;20113;-77
2022/12/05 13:46:41;;;;;;;8.18;5.80;;;11.10;65.60;;;;;;5005979;28;20053;-76
2022/12/05 13:49:32;;;;;;;8.80;6.10;;;11.10;65.50;;;;;;5015059;28;20072;-77
2022/12/05 13:52:22;;;;;;;9.40;5.75;;;11.10;65.50;;;;;;5019016;28;20036;-78
2022/12/05 13:55:16;;;;;;;6.65;5.20;;;11.10;65.50;;;;;;5024788;28;20107;-78
2022/12/05 13:58:52;;;;;;;7.43;5.80;;;11.20;65.50;;;;;;5025346;28;20188;-78
2022/12/05 14:01:46;;;;;;;6.35;5.70;;;11.20;65.30;;;;;;5005031;28;20068;-78
2022/12/05 14:04:49;;;;;;;5.65;4.97;;;11.20;65.30;;;;;;5025394;28;20500;-76
2022/12/05 14:07:42;;;;;;;7.07;5.40;;;11.20;65.20;;;;;;5022872;28;20110;-77
2022/12/05 14:10:26;;;;;;;;;;;11.20;65.80;;;;;;5023606;28;20555;-78
2022/12/05 14:13:14;;;;;;;6.93;5.10;;;11.20;65.20;;;;;;5024221;28;19948;-77
2022/12/05 14:16:24;;;;;;;7.57;5.00;;;11.20;65.30;;;;;;5013162;28;20119;-78
2022/12/05 14:19:23;;;;;;;7.55;5.18;;;11.20;65.20;;;;;;5009475;28;20098;-77
2022/12/05 14:23:01;;;;;;;5.82;4.90;;;11.20;65.30;;;;;;5023860;28;20110;-77
2022/12/05 14:26:15;;;;;;;9.82;5.28;;;11.10;65.10;;;;;;4951015;28;20043;-77
2022/12/05 14:29:21;;;;;;;8.75;5.25;;;11.10;65.20;;;;;;5009925;28;20468;-77
2022/12/05 14:32:08;;;;;;;9.85;5.25;;;11.00;65.10;;;;;;4990018;28;20041;-78
2022/12/05 14:35:13;;;;;;;6.95;5.10;;;10.90;65.00;;;;;;5005285;28;20232;-77
2022/12/05 14:38:03;;;;;;;5.75;5.05;;;10.80;65.00;;;;;;5004331;28;20571;-78
2022/12/05 14:40:47;;;;;;;7.50;5.18;;;10.80;65.10;;;;;;5005195;28;20052;-77
2022/12/05 14:43:33;;;;;;;5.90;5.30;;;10.70;65.00;;;;;;5005347;28;20234;-78
2022/12/05 14:46:27;;;;;;;5.97;4.93;;;10.60;65.00;;;;;;5006183;28;20523;-78
2022/12/05 14:49:34;;;;;;;7.90;5.45;;;10.60;65.00;;;;;;4995596;28;20063;-77
2022/12/05 14:52:22;;;;;;;9.30;5.35;;;10.50;64.90;;;;;;5023380;28;20121;-78
2022/12/05 14:55:15;;;;;;;5.95;4.70;;;10.50;65.10;;;;;;5004964;28;20033;-76